Time;durP1;ratioP1;P1;durP2;ratioP2;P2;SDS_P1;SDS_P2;PMS_P1;PMS_P2;Temp;Humidity;BMP_temperature;BMP_pressure;BME280_temperature;BME280_humidity;BME280_pressure;Samples;Min_cycle;Max_cycle;Signal;HPM_P1;HPM_P2
2024/03/22 00:01:52;;;;;;;;;;;;;;;;;;5013790;28;19932;-73
2024/03/22 00:04:18;;;;;;;;;;;;;;;;;;4982639;28;19948;-74
2024/03/22 00:06:43;;;;;;;;;;;;;;;;;;4997486;28;20059;-75
2024/03/22 00:09:09;;;;;;;;;;;;;;;;;;4997762;28;19933;-74
2024/03/22 00:11:34;;;;;;;;;;;;;;;;;;4997700;28;19972;-74
2024/03/22 00:13:59;;;;;;;;;;;;;;;;;;4997597;28;19929;-74
2024/03/22 00:16:25;;;;;;;;;;;;;;;;;;4997905;28;20033;-73
2024/03/22 00:18:50;;;;;;;;;;;;;;;;;;4998340;28;20424;-74
2024/03/22 00:21:16;;;;;;;;;;;;;;;;;;4997779;28;20384;-72
2024/03/22 00:23:41;;;;;;;;;;;;;;;;;;5000174;28;19932;-74
2024/03/22 00:26:07;;;;;;;;;;;;;;;;;;5004169;28;19984;-74
2024/03/22 00:28:33;;;;;;;;;;;;;;;;;;5013880;28;19925;-76
2024/03/22 00:30:58;;;;;;;;;;;;;;;;;;4997836;28;20003;-74
2024/03/22 00:33:23;;;;;;;;;;;;;;;;;;4997273;28;19925;-74
2024/03/22 00:35:49;;;;;;;;;;;;;;;;;;5020829;28;20389;-71
2024/03/22 00:38:14;;;;;;;;;;;;;;;;;;4997237;28;19929;-75
2024/03/22 00:40:40;;;;;;;;;;;;;;;;;;5004285;28;19933;-74
2024/03/22 00:43:05;;;;;;;;;;;;;;;;;;4997941;28;19929;-72
2024/03/22 00:45:31;;;;;;;;;;;;;;;;;;5020014;28;19956;-75
2024/03/22 00:47:57;;;;;;;;;;;;;;;;;;5012395;28;20430;-74
2024/03/22 00:50:22;;;;;;;;;;;;;;;;;;5006232;28;19971;-75
2024/03/22 00:52:47;;;;;;;;;;;;;;;;;;5030940;28;20274;-73
2024/03/22 00:55:13;;;;;;;;;;;;;;;;;;4981430;28;20646;-73
2024/03/22 00:57:38;;;;;;;;;;;;;;;;;;5003120;28;20003;-72
2024/03/22 01:00:04;;;;;;;;;;;;;;;;;;5019959;28;19929;-74
2024/03/22 01:02:29;;;;;;;;;;;;;;;;;;5013412;28;19926;-73
2024/03/22 01:04:55;;;;;;;;;;;;;;;;;;5003800;28;19929;-73
2024/03/22 01:07:20;;;;;;;;;;;;;;;;;;4995389;28;19925;-72
2024/03/22 01:09:46;;;;;;;;;;;;;;;;;;5021521;28;20366;-74
2024/03/22 01:12:11;;;;;;;;;;;;;;;;;;4997261;28;19929;-74
2024/03/22 01:14:37;;;;;;;;;;;;;;;;;;5013131;28;19999;-73
2024/03/22 01:17:02;;;;;;;;;;;;;;;;;;4997007;28;20370;-73
2024/03/22 01:19:27;;;;;;;;;;;;;;;;;;4997596;28;20412;-75
2024/03/22 01:21:53;;;;;;;;;;;;;;;;;;5007731;28;19956;-72
2024/03/22 01:24:18;;;;;;;;;;;;;;;;;;5005530;28;19941;-74
2024/03/22 01:26:44;;;;;;;;;;;;;;;;;;4999070;28;19925;-72
2024/03/22 01:29:09;;;;;;;;;;;;;;;;;;5025790;28;19929;-74
2024/03/22 01:31:34;;;;;;;;;;;;;;;;;;5010912;28;19929;-74
2024/03/22 01:34:00;;;;;;;;;;;;;;;;;;5023935;28;20012;-74
2024/03/22 01:36:25;;;;;;;;;;;;;;;;;;5005962;28;19929;-73
2024/03/22 01:38:51;;;;;;;;;;;;;;;;;;5021639;28;19968;-74
2024/03/22 01:41:17;;;;;;;;;;;;;;;;;;5033319;28;19940;-75
2024/03/22 01:43:43;;;;;;;;;;;;;;;;;;5004766;28;19974;-73
2024/03/22 01:46:08;;;;;;;;;;;;;;;;;;5000910;28;19928;-74
2024/03/22 01:48:34;;;;;;;;;;;;;;;;;;5024161;28;20330;-72
2024/03/22 01:50:59;;;;;;;;;;;;;;;;;;5021595;28;19931;-73
2024/03/22 01:53:24;;;;;;;;;;;;;;;;;;5005301;28;19925;-74
2024/03/22 01:55:50;;;;;;;;;;;;;;;;;;5017359;28;19929;-74
2024/03/22 01:58:15;;;;;;;;;;;;;;;;;;5017171;28;19925;-75
2024/03/22 02:00:41;;;;;;;;;;;;;;;;;;5008034;28;19925;-77
2024/03/22 02:03:06;;;;;;;;;;;;;;;;;;5022710;28;20321;-72
2024/03/22 02:05:32;;;;;;;;;;;;;;;;;;4999249;28;19932;-75
2024/03/22 02:07:57;;;;;;;;;;;;;;;;;;5006295;28;19992;-74
2024/03/22 02:10:23;;;;;;;;;;;;;;;;;;5016701;28;19932;-74
2024/03/22 02:12:48;;;;;;;;;;;;;;;;;;5016553;28;19971;-74
2024/03/22 02:15:14;;;;;;;;;;;;;;;;;;5025522;28;20385;-74
2024/03/22 02:17:39;;;;;;;;;;;;;;;;;;5022200;28;20297;-74
2024/03/22 02:20:05;;;;;;;;;;;;;;;;;;5000721;28;19932;-73
2024/03/22 02:22:30;;;;;;;;;;;;;;;;;;5016090;28;19968;-73
2024/03/22 02:24:56;;;;;;;;;;;;;;;;;;4999185;28;20020;-75
2024/03/22 02:27:21;;;;;;;;;;;;;;;;;;5003578;28;19925;-74
2024/03/22 02:29:47;;;;;;;;;;;;;;;;;;5016371;28;19936;-74
2024/03/22 02:32:12;;;;;;;;;;;;;;;;;;5021930;28;19975;-74
2024/03/22 02:34:37;;;;;;;;;;;;;;;;;;5022680;28;19933;-72
2024/03/22 02:37:03;;;;;;;;;;;;;;;;;;5024289;28;20016;-74
2024/03/22 02:39:28;;;;;;;;;;;;;;;;;;5020515;28;19979;-72
2024/03/22 02:41:54;;;;;;;;;;;;;;;;;;5007949;28;19925;-75
2024/03/22 02:44:19;;;;;;;;;;;;;;;;;;5015354;28;20332;-76
2024/03/22 02:46:44;;;;;;;;;;;;;;;;;;4998040;28;19929;-79
2024/03/22 02:49:10;;;;;;;;;;;;;;;;;;5019788;28;19933;-77
2024/03/22 02:51:35;;;;;;;;;;;;;;;;;;4999140;28;20032;-78
2024/03/22 02:54:01;;;;;;;;;;;;;;;;;;4999329;28;19929;-79
2024/03/22 02:56:27;;;;;;;;;;;;;;;;;;5002977;28;19971;-79
2024/03/22 02:58:52;;;;;;;;;;;;;;;;;;4998687;28;19928;-79
2024/03/22 03:01:17;;;;;;;;;;;;;;;;;;4980861;28;20382;-79
2024/03/22 03:03:43;;;;;;;;;;;;;;;;;;5020280;28;19971;-78
2024/03/22 03:06:09;;;;;;;;;;;;;;;;;;5004209;28;19996;-79
2024/03/22 03:08:35;;;;;;;;;;;;;;;;;;5000360;28;19935;-79
2024/03/22 03:11:00;;;;;;;;;;;;;;;;;;5015434;28;19932;-78
2024/03/22 03:13:26;;;;;;;;;;;;;;;;;;4998847;28;20015;-77
2024/03/22 03:15:51;;;;;;;;;;;;;;;;;;5007083;28;19925;-77
2024/03/22 03:18:17;;;;;;;;;;;;;;;;;;5004324;28;20408;-77
2024/03/22 03:20:42;;;;;;;;;;;;;;;;;;5015100;28;19952;-79
2024/03/22 03:23:08;;;;;;;;;;;;;;;;;;4997284;28;19932;-78
2024/03/22 03:25:33;;;;;;;;;;;;;;;;;;4997949;28;19929;-78
2024/03/22 03:27:59;;;;;;;;;;;;;;;;;;5014837;28;19979;-79
2024/03/22 03:30:24;;;;;;;;;;;;;;;;;;5015097;28;19967;-78
2024/03/22 03:32:49;;;;;;;;;;;;;;;;;;4999028;28;20396;-77
2024/03/22 03:35:15;;;;;;;;;;;;;;;;;;4987093;28;20017;-79
2024/03/22 03:37:40;;;;;;;;;;;;;;;;;;5017107;28;19936;-80
2024/03/22 03:40:06;;;;;;;;;;;;;;;;;;5019665;28;19973;-80
2024/03/22 03:42:31;;;;;;;;;;;;;;;;;;5004830;28;19929;-77
2024/03/22 03:44:57;;;;;;;;;;;;;;;;;;4997302;28;19932;-78
2024/03/22 03:47:22;;;;;;;;;;;;;;;;;;4997172;28;19961;-78
2024/03/22 03:49:48;;;;;;;;;;;;;;;;;;4998133;28;20351;-79
2024/03/22 03:52:13;;;;;;;;;;;;;;;;;;5002347;28;19932;-77
2024/03/22 03:54:39;;;;;;;;;;;;;;;;;;4996906;28;20457;-78
2024/03/22 03:57:04;;;;;;;;;;;;;;;;;;4997158;28;19929;-79
2024/03/22 03:59:29;;;;;;;;;;;;;;;;;;5015127;28;20400;-78
2024/03/22 04:01:55;;;;;;;;;;;;;;;;;;4997912;28;19929;-78
2024/03/22 04:04:20;;;;;;;;;;;;;;;;;;5020276;28;19932;-80
2024/03/22 04:06:46;;;;;;;;;;;;;;;;;;5021121;28;20015;-80
2024/03/22 04:09:11;;;;;;;;;;;;;;;;;;5013224;28;19944;-79
2024/03/22 04:11:37;;;;;;;;;;;;;;;;;;4998221;28;19937;-79
2024/03/22 04:14:02;;;;;;;;;;;;;;;;;;5020643;28;19929;-78
2024/03/22 04:16:28;;;;;;;;;;;;;;;;;;5004460;28;20023;-79
2024/03/22 04:18:53;;;;;;;;;;;;;;;;;;5012929;28;20022;-79
2024/03/22 04:21:19;;;;;;;;;;;;;;;;;;4996656;28;19929;-78
2024/03/22 04:23:44;;;;;;;;;;;;;;;;;;4997989;28;20022;-80
2024/03/22 04:26:10;;;;;;;;;;;;;;;;;;4997655;28;20302;-79
2024/03/22 04:28:35;;;;;;;;;;;;;;;;;;4997002;28;19925;-77
2024/03/22 04:31:01;;;;;;;;;;;;;;;;;;5004460;28;20443;-79
2024/03/22 04:33:26;;;;;;;;;;;;;;;;;;5001679;28;19929;-77
2024/03/22 04:35:52;;;;;;;;;;;;;;;;;;4982130;28;19929;-77
2024/03/22 04:38:18;;;;;;;;;;;;;;;;;;4997892;28;19949;-78
2024/03/22 04:40:43;;;;;;;;;;;;;;;;;;5012425;28;20457;-79
2024/03/22 04:43:09;;;;;;;;;;;;;;;;;;4998809;28;20389;-77
2024/03/22 04:45:34;;;;;;;;;;;;;;;;;;5009315;28;19926;-79
2024/03/22 04:47:59;;;;;;;;;;;;;;;;;;5003860;28;19925;-79
2024/03/22 04:50:25;;;;;;;;;;;;;;;;;;4999210;28;19960;-79
2024/03/22 04:52:50;;;;;;;;;;;;;;;;;;5015747;28;19925;-77
2024/03/22 04:55:16;;;;;;;;;;;;;;;;;;4983017;28;19929;-78
2024/03/22 04:57:41;;;;;;;;;;;;;;;;;;5035547;28;19932;-79
2024/03/22 05:00:08;;;;;;;;;;;;;;;;;;5010536;28;19954;-79
2024/03/22 05:02:34;;;;;;;;;;;;;;;;;;5003105;28;19929;-78
2024/03/22 05:04:59;;;;;;;;;;;;;;;;;;5002581;28;19926;-77
2024/03/22 05:07:25;;;;;;;;;;;;;;;;;;5019571;28;20050;-79
2024/03/22 05:09:50;;;;;;;;;;;;;;;;;;5026298;28;20329;-77
2024/03/22 05:12:16;;;;;;;;;;;;;;;;;;5025001;28;20408;-78
2024/03/22 05:14:41;;;;;;;;;;;;;;;;;;5018857;28;19983;-78
2024/03/22 05:17:07;;;;;;;;;;;;;;;;;;5001804;28;19929;-79
2024/03/22 05:19:32;;;;;;;;;;;;;;;;;;5002058;28;19957;-76
2024/03/22 05:22:01;;;;;;;;;;;;;;;;;;5009471;28;20301;-73
2024/03/22 05:24:27;;;;;;;;;;;;;;;;;;5028809;28;20404;-74
2024/03/22 05:26:53;;;;;;;;;;;;;;;;;;5003456;28;19960;-72
2024/03/22 05:29:18;;;;;;;;;;;;;;;;;;5019990;28;20031;-75
2024/03/22 05:31:43;;;;;;;;;;;;;;;;;;5019793;28;19925;-73
2024/03/22 05:34:09;;;;;;;;;;;;;;;;;;5019717;28;19926;-75
2024/03/22 05:36:34;;;;;;;;;;;;;;;;;;5018537;28;19974;-73
2024/03/22 05:39:00;;;;;;;;;;;;;;;;;;5019308;28;19991;-74
2024/03/22 05:41:25;;;;;;;;;;;;;;;;;;5019213;28;19925;-73
2024/03/22 05:43:51;;;;;;;;;;;;;;;;;;4983196;28;20265;-74
2024/03/22 05:46:16;;;;;;;;;;;;;;;;;;4999630;28;19929;-74
2024/03/22 05:48:42;;;;;;;;;;;;;;;;;;5011036;28;19926;-74
2024/03/22 05:51:07;;;;;;;;;;;;;;;;;;5004671;28;20389;-75
2024/03/22 05:53:32;;;;;;;;;;;;;;;;;;5030159;28;19987;-73
2024/03/22 05:55:58;;;;;;;;;;;;;;;;;;5018638;28;19929;-73
2024/03/22 05:58:24;;;;;;;;;;;;;;;;;;5002103;28;19974;-73
2024/03/22 06:00:49;;;;;;;;;;;;;;;;;;5002243;28;20368;-73
2024/03/22 06:03:15;;;;;;;;;;;;;;;;;;4986016;28;19925;-75
2024/03/22 06:05:40;;;;;;;;;;;;;;;;;;4998961;28;19926;-73
2024/03/22 06:08:06;;;;;;;;;;;;;;;;;;4998756;28;19932;-73
2024/03/22 06:10:32;;;;;;;;;;;;;;;;;;4998156;28;19925;-73
2024/03/22 06:12:57;;;;;;;;;;;;;;;;;;5030766;28;20325;-74
2024/03/22 06:15:23;;;;;;;;;;;;;;;;;;5014858;28;20235;-74
2024/03/22 06:17:48;;;;;;;;;;;;;;;;;;5018296;28;19972;-75
2024/03/22 06:20:14;;;;;;;;;;;;;;;;;;4998688;28;20461;-74
2024/03/22 06:22:40;;;;;;;;;;;;;;;;;;5000650;28;19925;-74
2024/03/22 06:25:05;;;;;;;;;;;;;;;;;;5001863;28;20430;-74
2024/03/22 06:27:31;;;;;;;;;;;;;;;;;;4985619;28;19932;-73
2024/03/22 06:29:56;;;;;;;;;;;;;;;;;;5001781;28;20037;-74
2024/03/22 06:32:22;;;;;;;;;;;;;;;;;;4982145;28;19926;-73
2024/03/22 06:34:47;;;;;;;;;;;;;;;;;;4998352;28;20016;-74
2024/03/22 06:37:13;;;;;;;;;;;;;;;;;;4998333;28;19933;-73
2024/03/22 06:39:38;;;;;;;;;;;;;;;;;;4998327;28;20408;-73
2024/03/22 06:42:04;;;;;;;;;;;;;;;;;;4999220;28;19929;-75
2024/03/22 06:44:29;;;;;;;;;;;;;;;;;;4985162;28;20435;-73
2024/03/22 06:46:55;;;;;;;;;;;;;;;;;;5018113;28;20279;-73
2024/03/22 06:49:21;;;;;;;;;;;;;;;;;;5029158;28;20019;-75
2024/03/22 06:51:47;;;;;;;;;;;;;;;;;;4984366;28;20352;-74
2024/03/22 06:54:12;;;;;;;;;;;;;;;;;;5001305;28;19925;-76
2024/03/22 06:56:38;;;;;;;;;;;;;;;;;;4985097;28;19959;-74
2024/03/22 06:59:03;;;;;;;;;;;;;;;;;;4981989;28;20029;-75
2024/03/22 07:01:29;;;;;;;;;;;;;;;;;;5016626;28;20370;-73
2024/03/22 07:03:54;;;;;;;;;;;;;;;;;;5015730;28;19983;-75
2024/03/22 07:06:21;;;;;;;;;;;;;;;;;;4981628;28;20013;-73
2024/03/22 07:08:46;;;;;;;;;;;;;;;;;;5000954;28;19927;-75
2024/03/22 07:11:11;;;;;;;;;;;;;;;;;;4984655;28;19935;-74
2024/03/22 07:13:37;;;;;;;;;;;;;;;;;;5000829;28;19948;-73
2024/03/22 07:16:03;;;;;;;;;;;;;;;;;;5001393;28;20413;-75
2024/03/22 07:18:29;;;;;;;;;;;;;;;;;;5000493;28;19972;-75
2024/03/22 07:20:57;;;;;;;;;;;;;;;;;;4985006;28;23739;-74
2024/03/22 07:23:23;;;;;;;;;;;;;;;;;;5000881;28;19975;-73
2024/03/22 07:25:48;;;;;;;;;;;;;;;;;;5016381;28;19933;-73
2024/03/22 07:28:15;;;;;;;;;;;;;;;;;;5000692;28;19960;-75
2024/03/22 07:30:41;;;;;;;;;;;;;;;;;;5017133;28;20002;-73
2024/03/22 07:33:07;;;;;;;;;;;;;;;;;;5017054;28;19933;-73
2024/03/22 07:35:32;;;;;;;;;;;;;;;;;;4997476;28;19925;-75
2024/03/22 07:37:58;;;;;;;;;;;;;;;;;;5002880;28;20424;-72
2024/03/22 07:40:23;;;;;;;;;;;;;;;;;;4981094;28;19972;-75
2024/03/22 07:42:49;;;;;;;;;;;;;;;;;;4981322;28;19926;-75
2024/03/22 07:45:15;;;;;;;;;;;;;;;;;;4985563;28;19995;-72
2024/03/22 07:47:42;;;;;;;;;;;;;;;;;;5010332;28;20035;-73
2024/03/22 07:50:07;;;;;;;;;;;;;;;;;;4991117;28;19933;-73
2024/03/22 07:52:33;;;;;;;;;;;;;;;;;;4985173;28;20378;-75
2024/03/22 07:54:58;;;;;;;;;;;;;;;;;;5012664;28;20343;-75
2024/03/22 07:57:24;;;;;;;;;;;;;;;;;;5032922;28;19983;-75
2024/03/22 07:59:49;;;;;;;;;;;;;;;;;;5016602;28;19932;-75
2024/03/22 08:02:14;;;;;;;;;;;;;;;;;;5016436;28;20290;-75
2024/03/22 08:04:40;;;;;;;;;;;;;;;;;;4985484;28;19929;-75
2024/03/22 08:07:06;;;;;;;;;;;;;;;;;;5032814;28;19925;-74
2024/03/22 08:09:31;;;;;;;;;;;;;;;;;;5013413;28;19983;-75
2024/03/22 08:11:57;;;;;;;;;;;;;;;;;;4980439;28;20119;-75
2024/03/22 08:14:22;;;;;;;;;;;;;;;;;;4996651;28;20389;-76
2024/03/22 08:16:48;;;;;;;;;;;;;;;;;;5010807;28;19980;-76
2024/03/22 08:19:14;;;;;;;;;;;;;;;;;;4998637;28;19925;-73
2024/03/22 08:21:40;;;;;;;;;;;;;;;;;;5016249;28;19925;-74
2024/03/22 08:24:06;;;;;;;;;;;;;;;;;;4983788;28;19925;-75
2024/03/22 08:26:32;;;;;;;;;;;;;;;;;;4999830;28;19925;-75
2024/03/22 08:28:57;;;;;;;;;;;;;;;;;;4999670;28;19928;-75
2024/03/22 08:31:25;;;;;;;;;;;;;;;;;;5015864;28;19932;-76
2024/03/22 08:33:51;;;;;;;;;;;;;;;;;;4980415;28;19930;-76
2024/03/22 08:36:16;;;;;;;;;;;;;;;;;;4996524;28;19925;-73
2024/03/22 08:38:42;;;;;;;;;;;;;;;;;;5012439;28;20020;-75
2024/03/22 08:41:07;;;;;;;;;;;;;;;;;;5016242;28;20243;-75
2024/03/22 08:43:33;;;;;;;;;;;;;;;;;;5015899;28;19925;-74
2024/03/22 08:45:58;;;;;;;;;;;;;;;;;;5002851;28;20290;-76
2024/03/22 08:48:24;;;;;;;;;;;;;;;;;;5016536;28;19948;-76
2024/03/22 08:50:50;;;;;;;;;;;;;;;;;;5000196;28;19933;-76
2024/03/22 08:53:16;;;;;;;;;;;;;;;;;;4998885;28;19930;-75
2024/03/22 08:55:42;;;;;;;;;;;;;;;;;;5015719;28;19929;-75
2024/03/22 08:58:08;;;;;;;;;;;;;;;;;;5015695;28;20431;-75
2024/03/22 09:00:35;;;;;;;;;;;;;;;;;;5015773;28;20435;-76
2024/03/22 09:03:00;;;;;;;;;;;;;;;;;;5015867;28;19968;-75
2024/03/22 09:05:26;;;;;;;;;;;;;;;;;;5015470;28;19925;-75
2024/03/22 09:07:55;;;;;;;;;;;;;;;;;;5024219;28;19925;-75
2024/03/22 09:10:21;;;;;;;;;;;;;;;;;;5015989;28;20374;-75
2024/03/22 09:12:47;;;;;;;;;;;;;;;;;;5010145;28;19983;-76
2024/03/22 09:15:12;;;;;;;;;;;;;;;;;;5015054;28;19952;-76
2024/03/22 09:17:38;;;;;;;;;;;;;;;;;;5015655;28;19975;-76
2024/03/22 09:20:05;;;;;;;;;;;;;;;;;;5011856;28;19983;-76
2024/03/22 09:22:32;;;;;;;;;;;;;;;;;;4997430;28;19926;-74
2024/03/22 09:24:59;;;;;;;;;;;;;;;;;;4979719;28;20016;-76
2024/03/22 09:27:24;;;;;;;;;;;;;;;;;;5024637;28;19996;-76
2024/03/22 09:29:50;;;;;;;;;;;;;;;;;;5015553;28;19925;-74
2024/03/22 09:32:15;;;;;;;;;;;;;;;;;;4979722;28;20097;-76
2024/03/22 09:34:42;;;;;;;;;;;;;;;;;;5007821;28;19948;-75
2024/03/22 09:37:08;;;;;;;;;;;;;;;;;;4982807;28;19925;-74
2024/03/22 09:39:34;;;;;;;;;;;;;;;;;;5014735;28;19929;-73
2024/03/22 09:41:59;;;;;;;;;;;;;;;;;;4998632;28;19933;-72
2024/03/22 09:44:25;;;;;;;;;;;;;;;;;;4985819;28;19925;-73
2024/03/22 09:46:51;;;;;;;;;;;;;;;;;;4982267;28;20024;-76
2024/03/22 09:49:17;;;;;;;;;;;;;;;;;;4998551;28;19932;-76
2024/03/22 09:51:43;;;;;;;;;;;;;;;;;;5001941;28;19926;-76
2024/03/22 09:54:09;;;;;;;;;;;;;;;;;;4985808;28;19925;-75
2024/03/22 09:56:34;;;;;;;;;;;;;;;;;;4985274;28;19925;-75
2024/03/22 09:58:59;;;;;;;;;;;;;;;;;;5018382;28;20078;-75
2024/03/22 10:01:25;;;;;;;;;;;;;;;;;;5017697;28;19925;-75
2024/03/22 10:03:50;;;;;;;;;;;;;;;;;;5002006;28;20377;-76
2024/03/22 10:06:16;;;;;;;;;;;;;;;;;;5034465;28;20032;-74
2024/03/22 10:08:41;;;;;;;;;;;;;;;;;;5001945;28;20381;-75
2024/03/22 10:11:07;;;;;;;;;;;;;;;;;;5000346;28;19926;-75
2024/03/22 10:13:33;;;;;;;;;;;;;;;;;;4999927;28;19933;-75
2024/03/22 10:15:58;;;;;;;;;;;;;;;;;;5002394;28;20336;-74
2024/03/22 10:18:24;;;;;;;;;;;;;;;;;;4981958;28;19926;-75
2024/03/22 10:20:49;;;;;;;;;;;;;;;;;;4982361;28;19925;-74
2024/03/22 10:23:16;;;;;;;;;;;;;;;;;;5025157;28;20301;-75
2024/03/22 10:25:43;;;;;;;;;;;;;;;;;;4982107;28;20009;-75
2024/03/22 10:28:08;;;;;;;;;;;;;;;;;;5001366;28;19933;-75
2024/03/22 10:30:34;;;;;;;;;;;;;;;;;;5001376;28;19925;-76
2024/03/22 10:32:59;;;;;;;;;;;;;;;;;;5017787;28;20423;-75
2024/03/22 10:35:25;;;;;;;;;;;;;;;;;;5000983;28;20385;-74
2024/03/22 10:37:50;;;;;;;;;;;;;;;;;;5017177;28;19927;-75
2024/03/22 10:40:16;;;;;;;;;;;;;;;;;;5010205;28;19983;-74
2024/03/22 10:42:41;;;;;;;;;;;;;;;;;;5001067;28;20373;-75
2024/03/22 10:45:07;;;;;;;;;;;;;;;;;;4997726;28;19929;-75
2024/03/22 10:47:32;;;;;;;;;;;;;;;;;;5024565;28;19929;-75
2024/03/22 10:49:58;;;;;;;;;;;;;;;;;;5017071;28;19929;-75
2024/03/22 10:52:24;;;;;;;;;;;;;;;;;;4985021;28;20409;-75
2024/03/22 10:54:49;;;;;;;;;;;;;;;;;;5000456;28;19925;-74
2024/03/22 10:57:15;;;;;;;;;;;;;;;;;;5003733;28;20018;-75
2024/03/22 10:59:40;;;;;;;;;;;;;;;;;;5016940;28;20358;-75
2024/03/22 11:02:07;;;;;;;;;;;;;;;;;;4984589;28;20004;-75
2024/03/22 11:04:33;;;;;;;;;;;;;;;;;;5016884;28;20443;-75
2024/03/22 11:06:58;;;;;;;;;;;;;;;;;;4984525;28;19929;-75
2024/03/22 11:09:25;;;;;;;;;;;;;;;;;;5002317;28;19955;-74
2024/03/22 11:11:50;;;;;;;;;;;;;;;;;;5002527;28;20394;-74
2024/03/22 11:14:16;;;;;;;;;;;;;;;;;;4983618;28;19983;-76
2024/03/22 11:16:41;;;;;;;;;;;;;;;;;;5000704;28;19925;-75
2024/03/22 11:19:08;;;;;;;;;;;;;;;;;;5016652;28;19952;-75
2024/03/22 11:21:33;;;;;;;;;;;;;;;;;;5009402;28;19996;-74
2024/03/22 11:23:59;;;;;;;;;;;;;;;;;;5016598;28;19971;-75
2024/03/22 11:26:24;;;;;;;;;;;;;;;;;;5014218;28;19925;-77
2024/03/22 11:28:51;;;;;;;;;;;;;;;;;;4996769;28;19925;-75
2024/03/22 11:31:19;;;;;;;;;;;;;;;;;;5012886;28;19925;-75
2024/03/22 11:33:45;;;;;;;;;;;;;;;;;;5004185;28;20005;-75
2024/03/22 11:36:10;;;;;;;;;;;;;;;;;;5015186;28;19925;-75
2024/03/22 11:38:36;;;;;;;;;;;;;;;;;;4999795;28;19929;-76
2024/03/22 11:41:01;;;;;;;;;;;;;;;;;;4980482;28;19925;-75
2024/03/22 11:43:31;;;;;;;;;;;;;;;;;;4996846;28;19929;-76
2024/03/22 11:45:56;;;;;;;;;;;;;;;;;;4997031;28;19925;-76
2024/03/22 11:48:23;;;;;;;;;;;;;;;;;;5005183;28;20011;-76
2024/03/22 11:50:49;;;;;;;;;;;;;;;;;;4983921;28;20377;-75
2024/03/22 11:53:14;;;;;;;;;;;;;;;;;;4980187;28;19961;-76
2024/03/22 11:55:40;;;;;;;;;;;;;;;;;;5011377;28;19971;-76
2024/03/22 11:58:07;;;;;;;;;;;;;;;;;;5015872;28;19925;-75
2024/03/22 12:00:32;;;;;;;;;;;;;;;;;;4997234;28;19925;-74
2024/03/22 12:02:58;;;;;;;;;;;;;;;;;;4999838;28;20457;-75
2024/03/22 12:05:26;;;;;;;;;;;;;;;;;;5011082;28;19925;-74
2024/03/22 12:07:52;;;;;;;;;;;;;;;;;;5006569;28;19932;-77
2024/03/22 12:10:17;;;;;;;;;;;;;;;;;;4999386;28;20448;-76
2024/03/22 12:12:43;;;;;;;;;;;;;;;;;;5011896;28;19996;-76
2024/03/22 12:15:08;;;;;;;;;;;;;;;;;;5015603;28;19925;-75
2024/03/22 12:17:36;;;;;;;;;;;;;;;;;;5032072;28;19929;-73
2024/03/22 12:20:03;;;;;;;;;;;;;;;;;;4999545;28;19925;-76
2024/03/22 12:22:29;;;;;;;;;;;;;;;;;;5003561;28;20285;-73
2024/03/22 12:24:54;;;;;;;;;;;;;;;;;;5032134;28;19925;-73
2024/03/22 12:27:20;;;;;;;;;;;;;;;;;;5018338;28;20400;-76
2024/03/22 12:29:48;;;;;;;;;;;;;;;;;;4999948;28;20015;-75
2024/03/22 12:32:13;;;;;;;;;;;;;;;;;;4996067;28;20016;-76
2024/03/22 12:34:38;;;;;;;;;;;;;;;;;;5015264;28;20044;-75
2024/03/22 12:37:04;;;;;;;;;;;;;;;;;;4999407;28;19925;-76
2024/03/22 12:39:32;;;;;;;;;;;;;;;;;;4999059;28;19931;-76
2024/03/22 12:41:57;;;;;;;;;;;;;;;;;;5008031;28;20019;-77
2024/03/22 12:44:23;;;;;;;;;;;;;;;;;;5015418;28;19963;-75
2024/03/22 12:46:50;;;;;;;;;;;;;;;;;;5028122;28;19925;-75
2024/03/22 12:49:16;;;;;;;;;;;;;;;;;;4998940;28;19932;-75
2024/03/22 12:51:41;;;;;;;;;;;;;;;;;;5032447;28;20012;-74
2024/03/22 12:54:09;;;;;;;;;;;;;;;;;;5011631;28;19929;-74
2024/03/22 12:56:36;;;;;;;;;;;;;;;;;;5015292;28;19955;-76
2024/03/22 12:59:02;;;;;;;;;;;;;;;;;;5012329;28;20104;-75
2024/03/22 13:01:27;;;;;;;;;;;;;;;;;;4995366;28;19933;-76
2024/03/22 13:03:53;;;;;;;;;;;;;;;;;;5027577;28;20381;-76
2024/03/22 13:06:19;;;;;;;;;;;;;;;;;;4991984;28;19968;-75
2024/03/22 13:08:45;;;;;;;;;;;;;;;;;;5015097;28;19925;-76
2024/03/22 13:11:12;;;;;;;;;;;;;;;;;;4996616;28;19932;-76
2024/03/22 13:13:38;;;;;;;;;;;;;;;;;;4980104;28;19983;-75
2024/03/22 13:16:06;;;;;;;;;;;;;;;;;;4995592;28;19932;-76
2024/03/22 13:18:32;;;;;;;;;;;;;;;;;;5035502;28;19925;-76
2024/03/22 13:20:59;;;;;;;;;;;;;;;;;;5035524;28;19947;-75
2024/03/22 13:23:24;;;;;;;;;;;;;;;;;;5003066;28;19925;-76
2024/03/22 13:25:51;;;;;;;;;;;;;;;;;;5019081;28;19976;-77
2024/03/22 13:28:22;;;;;;;;;;;;;;;;;;5019052;28;19925;-76
2024/03/22 13:30:49;;;;;;;;;;;;;;;;;;5019191;28;20015;-76
2024/03/22 13:33:14;;;;;;;;;;;;;;;;;;5001113;28;19983;-77
2024/03/22 13:35:43;;;;;;;;;;;;;;;;;;4999137;28;19932;-76
2024/03/22 13:38:13;;;;;;;;;;;;;;;;;;5015921;28;19961;-76
2024/03/22 13:40:40;;;;;;;;;;;;;;;;;;5013569;28;19941;-76
2024/03/22 13:43:05;;;;;;;;;;;;;;;;;;5003314;28;19932;-77
2024/03/22 13:45:31;;;;;;;;;;;;;;;;;;5006294;28;20304;-77
2024/03/22 13:47:56;;;;;;;;;;;;;;;;;;5002438;28;19932;-76
2024/03/22 13:50:23;;;;;;;;;;;;;;;;;;4986378;28;19925;-77
2024/03/22 13:52:50;;;;;;;;;;;;;;;;;;5001744;28;19929;-76
2024/03/22 13:55:16;;;;;;;;;;;;;;;;;;5002249;28;20334;-75
2024/03/22 13:57:43;;;;;;;;;;;;;;;;;;5010176;28;19925;-77
2024/03/22 14:00:14;;;;;;;;;;;;;;;;;;5018403;28;19943;-74
2024/03/22 14:02:43;;;;;;;;;;;;;;;;;;4990124;28;19926;-76
2024/03/22 14:05:09;;;;;;;;;;;;;;;;;;5018577;28;19925;-75
2024/03/22 14:07:34;;;;;;;;;;;;;;;;;;5002090;28;19990;-75
2024/03/22 14:10:00;;;;;;;;;;;;;;;;;;5018616;28;19964;-75
2024/03/22 14:12:26;;;;;;;;;;;;;;;;;;5010168;28;19932;-77
2024/03/22 14:14:52;;;;;;;;;;;;;;;;;;4985571;28;19932;-76
2024/03/22 14:17:18;;;;;;;;;;;;;;;;;;5001826;28;19929;-75
2024/03/22 14:19:43;;;;;;;;;;;;;;;;;;4998598;28;19925;-75
2024/03/22 14:22:09;;;;;;;;;;;;;;;;;;5028501;28;19971;-75
2024/03/22 14:24:35;;;;;;;;;;;;;;;;;;5012628;28;19936;-76
2024/03/22 14:27:01;;;;;;;;;;;;;;;;;;5027348;28;19925;-75
2024/03/22 14:29:26;;;;;;;;;;;;;;;;;;5010088;28;19972;-76
2024/03/22 14:31:52;;;;;;;;;;;;;;;;;;5034598;28;19925;-76
2024/03/22 14:34:18;;;;;;;;;;;;;;;;;;5018159;28;19932;-76
2024/03/22 14:36:43;;;;;;;;;;;;;;;;;;5018041;28;19985;-77
2024/03/22 14:39:11;;;;;;;;;;;;;;;;;;5001778;28;19925;-77
2024/03/22 14:41:37;;;;;;;;;;;;;;;;;;4985306;28;19929;-76
2024/03/22 14:44:05;;;;;;;;;;;;;;;;;;4985737;28;20449;-77
2024/03/22 14:46:32;;;;;;;;;;;;;;;;;;5034391;28;19970;-76
2024/03/22 14:48:58;;;;;;;;;;;;;;;;;;5001916;28;19949;-75
2024/03/22 14:51:25;;;;;;;;;;;;;;;;;;5014219;28;19926;-76
2024/03/22 14:53:50;;;;;;;;;;;;;;;;;;4998075;28;19926;-75
2024/03/22 14:56:18;;;;;;;;;;;;;;;;;;5001363;28;19948;-73
2024/03/22 14:58:43;;;;;;;;;;;;;;;;;;5017846;28;19925;-76
2024/03/22 15:01:09;;;;;;;;;;;;;;;;;;4997513;28;19961;-73
2024/03/22 15:03:34;;;;;;;;;;;;;;;;;;5021277;28;19929;-72
2024/03/22 15:06:00;;;;;;;;;;;;;;;;;;4984277;28;19929;-71
2024/03/22 15:08:26;;;;;;;;;;;;;;;;;;5016866;28;20335;-73
2024/03/22 15:10:51;;;;;;;;;;;;;;;;;;5016771;28;19948;-73
2024/03/22 15:13:17;;;;;;;;;;;;;;;;;;5014240;28;19979;-72
2024/03/22 15:15:43;;;;;;;;;;;;;;;;;;5028937;28;19926;-74
2024/03/22 15:18:09;;;;;;;;;;;;;;;;;;5009679;28;20373;-75
2024/03/22 15:20:34;;;;;;;;;;;;;;;;;;5004230;28;19925;-73
2024/03/22 15:23:00;;;;;;;;;;;;;;;;;;4999690;28;19956;-74
2024/03/22 15:25:25;;;;;;;;;;;;;;;;;;5009261;28;20416;-73
2024/03/22 15:27:51;;;;;;;;;;;;;;;;;;5005428;28;20377;-75
2024/03/22 15:30:16;;;;;;;;;;;;;;;;;;5010194;28;19925;-73
2024/03/22 15:32:42;;;;;;;;;;;;;;;;;;5000091;28;19925;-74
2024/03/22 15:35:07;;;;;;;;;;;;;;;;;;5016132;28;20404;-74
2024/03/22 15:37:33;;;;;;;;;;;;;;;;;;5016665;28;19925;-73
2024/03/22 15:39:59;;;;;;;;;;;;;;;;;;4999377;28;19925;-74
2024/03/22 15:42:24;;;;;;;;;;;;;;;;;;4997366;28;19979;-73
2024/03/22 15:44:50;;;;;;;;;;;;;;;;;;5016488;28;19929;-73
2024/03/22 15:47:15;;;;;;;;;;;;;;;;;;5009899;28;19932;-74
2024/03/22 15:49:41;;;;;;;;;;;;;;;;;;5029660;28;20289;-74
2024/03/22 15:52:06;;;;;;;;;;;;;;;;;;5024962;28;19925;-74
2024/03/22 15:54:32;;;;;;;;;;;;;;;;;;5003695;28;20378;-73
2024/03/22 15:56:57;;;;;;;;;;;;;;;;;;5007706;28;19935;-74
2024/03/22 15:59:22;;;;;;;;;;;;;;;;;;4999098;28;19925;-72
2024/03/22 16:01:48;;;;;;;;;;;;;;;;;;5008236;28;19929;-73
2024/03/22 16:04:13;;;;;;;;;;;;;;;;;;5008428;28;20026;-72
2024/03/22 16:06:39;;;;;;;;;;;;;;;;;;4982048;28;19925;-74
2024/03/22 16:09:09;;;;;;;;;;;;;;;;;;4999307;28;19925;-73
2024/03/22 16:11:34;;;;;;;;;;;;;;;;;;4998229;28;19925;-73
2024/03/22 16:14:00;;;;;;;;;;;;;;;;;;4998990;28;19925;-74
2024/03/22 16:16:25;;;;;;;;;;;;;;;;;;5014220;28;19979;-74
2024/03/22 16:18:51;;;;;;;;;;;;;;;;;;5031451;28;19936;-74
2024/03/22 16:21:17;;;;;;;;;;;;;;;;;;4999069;28;20451;-72
2024/03/22 16:23:43;;;;;;;;;;;;;;;;;;5026769;28;19931;-75
2024/03/22 16:26:08;;;;;;;;;;;;;;;;;;5015471;28;20290;-73
2024/03/22 16:28:33;;;;;;;;;;;;;;;;;;5007256;28;19925;-75
2024/03/22 16:30:59;;;;;;;;;;;;;;;;;;5009268;28;19925;-74
2024/03/22 16:33:25;;;;;;;;;;;;;;;;;;5012106;28;19932;-74
2024/03/22 16:35:50;;;;;;;;;;;;;;;;;;5015350;28;19932;-74